Time;durP1;ratioP1;P1;durP2;ratioP2;P2;SDS_P1;SDS_P2;PMS_P1;PMS_P2;Temp;Humidity;BMP_temperature;BMP_pressure;BME280_temperature;BME280_humidity;BME280_pressure;Samples;Min_cycle;Max_cycle;Signal;HPM_P1;HPM_P2
2021/09/29 00:01:35;;;;;;;5.53;5.05;;;;;;;;;;5014787;28;20258;-41
2021/09/29 00:04:01;;;;;;;6.03;5.43;;;;;;;;;;5026066;28;20175;-41
2021/09/29 00:06:27;;;;;;;6.20;5.60;;;;;;;;;;5021798;28;20271;-41
2021/09/29 00:08:53;;;;;;;5.75;5.15;;;;;;;;;;5030515;28;20267;-42
2021/09/29 00:11:19;;;;;;;7.82;5.70;;;;;;;;;;5033832;28;20642;-42
2021/09/29 00:13:45;;;;;;;5.28;4.70;;;;;;;;;;5034187;28;20538;-42
2021/09/29 00:16:11;;;;;;;5.88;5.28;;;;;;;;;;5032286;28;20171;-41
2021/09/29 00:18:37;;;;;;;6.07;5.07;;;;;;;;;;5021946;28;20259;-41
2021/09/29 00:21:03;;;;;;;4.75;4.35;;;;;;;;;;5023324;28;20179;-41
2021/09/29 00:23:29;;;;;;;5.97;5.43;;;;;;;;;;5014405;28;20168;-42
2021/09/29 00:25:55;;;;;;;6.15;5.55;;;;;;;;;;5014657;28;20211;-42
2021/09/29 00:28:21;;;;;;;7.05;5.95;;;;;;;;;;5016397;28;20208;-42
2021/09/29 00:30:51;;;;;;;6.18;5.45;;;;;;;;;;5022525;28;20179;-42
2021/09/29 00:33:18;;;;;;;6.75;5.55;;;;;;;;;;5019039;28;20183;-42
2021/09/29 00:35:44;;;;;;;6.55;5.90;;;;;;;;;;5031865;28;20535;-41
2021/09/29 00:38:10;;;;;;;6.40;5.72;;;;;;;;;;5024516;28;20184;-41
2021/09/29 00:40:36;;;;;;;5.93;5.28;;;;;;;;;;5015880;28;20176;-41
2021/09/29 00:43:02;;;;;;;5.65;5.15;;;;;;;;;;5016298;28;20200;-41
2021/09/29 00:45:28;;;;;;;7.22;5.20;;;;;;;;;;5028239;28;20168;-41
2021/09/29 00:47:54;;;;;;;6.95;5.93;;;;;;;;;;5021270;28;20176;-41
2021/09/29 00:50:20;;;;;;;5.60;5.13;;;;;;;;;;5033530;28;20164;-41
2021/09/29 00:52:46;;;;;;;7.15;5.07;;;;;;;;;;5033898;28;20210;-41
2021/09/29 00:55:15;;;;;;;6.15;5.25;;;;;;;;;;5032031;28;20180;-42
2021/09/29 00:57:42;;;;;;;5.80;5.28;;;;;;;;;;5029285;28;20190;-42
2021/09/29 01:00:09;;;;;;;6.10;5.50;;;;;;;;;;5015629;28;20243;-42
2021/09/29 01:02:35;;;;;;;5.35;4.85;;;;;;;;;;5033002;28;20226;-42
2021/09/29 01:05:02;;;;;;;5.57;5.07;;;;;;;;;;5032645;28;20449;-42
2021/09/29 01:07:29;;;;;;;5.90;5.30;;;;;;;;;;5033389;28;20208;-41
2021/09/29 01:10:01;;;;;;;6.97;5.22;;;;;;;;;;5031748;28;20185;-41
2021/09/29 01:12:30;;;;;;;6.43;5.15;;;;;;;;;;5033340;28;20215;-41
2021/09/29 01:15:05;;;;;;;5.32;4.82;;;;;;;;;;5020448;28;20234;-41
2021/09/29 01:17:31;;;;;;;5.30;4.80;;;;;;;;;;5015702;28;20214;-41
2021/09/29 01:20:05;;;;;;;5.15;4.65;;;;;;;;;;5025136;28;20930;-42
2021/09/29 01:22:51;;;;;;;5.95;5.20;;;;;;;;;;5017765;28;20275;-42
2021/09/29 01:25:29;;;;;;;7.05;5.53;;;;;;;;;;5017403;28;20168;-42
2021/09/29 01:27:56;;;;;;;6.07;5.45;;;;;;;;;;5018057;28;20590;-42
2021/09/29 01:30:22;;;;;;;5.32;4.82;;;;;;;;;;5034866;28;20190;-42
2021/09/29 01:32:48;;;;;;;5.57;4.88;;;;;;;;;;5031234;28;20192;-42
2021/09/29 01:35:15;;;;;;;6.00;5.45;;;;;;;;;;5032930;28;20225;-42
2021/09/29 01:37:41;;;;;;;6.07;5.47;;;;;;;;;;5017452;28;20200;-41
2021/09/29 01:40:08;;;;;;;5.93;5.32;;;;;;;;;;5029012;28;20267;-41
2021/09/29 01:42:34;;;;;;;5.97;5.38;;;;;;;;;;5036695;28;20239;-41
2021/09/29 01:45:00;;;;;;;6.35;5.05;;;;;;;;;;5034319;28;20172;-41
2021/09/29 01:47:26;;;;;;;6.53;5.20;;;;;;;;;;5017540;28;20184;-41
2021/09/29 01:49:54;;;;;;;5.53;5.03;;;;;;;;;;5017524;28;20206;-41
2021/09/29 01:52:22;;;;;;;6.03;5.03;;;;;;;;;;5022992;28;20176;-42
2021/09/29 01:54:49;;;;;;;5.47;4.97;;;;;;;;;;5036271;28;20273;-42
2021/09/29 01:57:15;;;;;;;5.60;5.10;;;;;;;;;;5022792;28;20180;-42
2021/09/29 01:59:43;;;;;;;5.57;5.07;;;;;;;;;;5036979;28;20463;-41
2021/09/29 02:02:09;;;;;;;7.93;5.20;;;;;;;;;;5017135;28;20507;-42
2021/09/29 02:04:35;;;;;;;5.95;5.15;;;;;;;;;;5032906;28;20203;-41
2021/09/29 02:07:01;;;;;;;5.82;5.22;;;;;;;;;;5034811;28;20182;-41
2021/09/29 02:09:28;;;;;;;6.72;5.38;;;;;;;;;;5036698;28;20179;-41
2021/09/29 02:11:55;;;;;;;5.93;5.32;;;;;;;;;;5026290;28;20177;-41
2021/09/29 02:14:21;;;;;;;7.45;5.30;;;;;;;;;;5016518;28;20272;-41
2021/09/29 02:16:48;;;;;;;7.95;5.60;;;;;;;;;;5035877;28;20258;-41
2021/09/29 02:19:14;;;;;;;8.90;5.82;;;;;;;;;;5028923;28;20218;-41
2021/09/29 02:21:41;;;;;;;7.50;5.60;;;;;;;;;;5016812;28;20208;-42
2021/09/29 02:24:07;;;;;;;6.95;5.97;;;;;;;;;;5016302;28;20192;-41
2021/09/29 02:26:34;;;;;;;6.32;4.75;;;;;;;;;;5016988;28;20179;-41
2021/09/29 02:29:00;;;;;;;6.30;5.57;;;;;;;;;;5036124;28;20291;-41
2021/09/29 02:31:26;;;;;;;6.25;5.60;;;;;;;;;;5033853;28;20590;-41
2021/09/29 02:33:52;;;;;;;8.00;5.45;;;;;;;;;;5016440;28;20188;-42
2021/09/29 02:36:18;;;;;;;6.35;5.75;;;;;;;;;;5035107;28;20555;-41
2021/09/29 02:38:45;;;;;;;5.57;5.07;;;;;;;;;;5019276;28;20223;-41
2021/09/29 02:41:14;;;;;;;5.50;4.90;;;;;;;;;;5033302;28;20182;-41
2021/09/29 02:43:40;;;;;;;7.57;5.95;;;;;;;;;;5035080;28;20179;-41
2021/09/29 02:46:06;;;;;;;7.95;5.93;;;;;;;;;;5033203;28;20262;-42
2021/09/29 02:48:32;;;;;;;7.22;5.38;;;;;;;;;;5022961;28;20176;-42
2021/09/29 02:50:58;;;;;;;6.43;5.40;;;;;;;;;;5034907;28;20175;-42
2021/09/29 02:53:31;;;;;;;6.43;5.60;;;;;;;;;;5020129;28;20551;-41
2021/09/29 02:55:57;;;;;;;5.97;5.40;;;;;;;;;;5024687;28;20203;-41
2021/09/29 02:58:24;;;;;;;9.32;5.47;;;;;;;;;;5016404;28;20180;-41
2021/09/29 03:00:51;;;;;;;6.03;5.40;;;;;;;;;;5016217;28;20662;-41
2021/09/29 03:03:17;;;;;;;8.23;5.75;;;;;;;;;;5019797;28;20261;-41
2021/09/29 03:05:44;;;;;;;5.97;5.35;;;;;;;;;;5025324;28;20177;-41
2021/09/29 03:08:10;;;;;;;5.13;4.63;;;;;;;;;;5016235;28;20165;-42
2021/09/29 03:10:38;;;;;;;7.00;5.47;;;;;;;;;;5015872;28;20180;-42
2021/09/29 03:13:04;;;;;;;6.72;5.30;;;;;;;;;;5015305;28;20548;-41
2021/09/29 03:15:30;;;;;;;5.82;5.20;;;;;;;;;;5015836;28;20426;-41
2021/09/29 03:17:56;;;;;;;5.70;4.65;;;;;;;;;;5023606;28;20190;-41
2021/09/29 03:20:24;;;;;;;4.85;4.35;;;;;;;;;;5025486;28;20263;-41
2021/09/29 03:22:50;;;;;;;7.25;4.97;;;;;;;;;;5016856;28;20200;-41
2021/09/29 03:25:16;;;;;;;5.60;4.97;;;;;;;;;;5016943;28;20268;-42
2021/09/29 03:27:42;;;;;;;7.05;5.45;;;;;;;;;;5015529;28;20180;-41
2021/09/29 03:30:09;;;;;;;6.93;5.22;;;;;;;;;;5024567;28;20221;-41
2021/09/29 03:32:35;;;;;;;7.07;5.05;;;;;;;;;;5015407;28;20176;-41
2021/09/29 03:35:01;;;;;;;6.25;4.80;;;;;;;;;;5024039;28;20179;-41
2021/09/29 03:37:27;;;;;;;9.60;5.80;;;;;;;;;;5034529;28;20176;-41
2021/09/29 03:39:53;;;;;;;6.22;4.70;;;;;;;;;;5034696;28;20315;-41
2021/09/29 03:42:19;;;;;;;5.68;5.10;;;;;;;;;;5034747;28;20210;-41
2021/09/29 03:44:45;;;;;;;5.72;4.30;;;;;;;;;;5033353;28;20160;-41
2021/09/29 03:47:11;;;;;;;6.30;4.80;;;;;;;;;;5032660;28;20860;-42
2021/09/29 03:49:37;;;;;;;6.30;4.78;;;;;;;;;;5015779;28;20626;-42
2021/09/29 03:52:03;;;;;;;5.97;4.80;;;;;;;;;;5016461;28;20192;-41
2021/09/29 03:54:29;;;;;;;5.68;5.00;;;;;;;;;;5023917;28;20547;-41
2021/09/29 03:56:55;;;;;;;5.55;4.97;;;;;;;;;;5030592;28;20283;-41
2021/09/29 03:59:21;;;;;;;6.07;4.82;;;;;;;;;;5034095;28;20275;-41
2021/09/29 04:01:47;;;;;;;5.43;4.43;;;;;;;;;;5034583;28;20204;-42
2021/09/29 04:04:14;;;;;;;7.00;5.10;;;;;;;;;;5030214;28;20239;-41
2021/09/29 04:06:40;;;;;;;9.57;5.78;;;;;;;;;;5018735;28;20219;-41
2021/09/29 04:09:06;;;;;;;9.35;5.65;;;;;;;;;;5014726;28;20179;-41
2021/09/29 04:11:33;;;;;;;7.68;5.38;;;;;;;;;;5028926;28;20180;-42
2021/09/29 04:13:59;;;;;;;10.63;5.13;;;;;;;;;;5033484;28;20176;-41
2021/09/29 04:16:25;;;;;;;8.32;5.03;;;;;;;;;;5031517;28;20191;-41
2021/09/29 04:18:51;;;;;;;8.95;5.55;;;;;;;;;;5018659;28;20176;-41
2021/09/29 04:21:17;;;;;;;8.20;5.18;;;;;;;;;;5033498;28;20180;-41
2021/09/29 04:23:43;;;;;;;7.80;4.88;;;;;;;;;;5033080;28;20218;-41
2021/09/29 04:26:09;;;;;;;16.90;5.88;;;;;;;;;;5022558;28;20168;-41
2021/09/29 04:28:35;;;;;;;15.98;6.47;;;;;;;;;;5014369;28;20433;-41
2021/09/29 04:31:02;;;;;;;12.48;6.40;;;;;;;;;;5014587;28;20281;-41
2021/09/29 04:33:28;;;;;;;13.38;5.97;;;;;;;;;;5032316;28;20202;-41
2021/09/29 04:35:54;;;;;;;8.05;5.43;;;;;;;;;;5033359;28;20193;-41
2021/09/29 04:38:20;;;;;;;8.23;5.80;;;;;;;;;;5034435;28;20258;-41
2021/09/29 04:40:47;;;;;;;11.95;5.28;;;;;;;;;;5034080;28;20291;-41
2021/09/29 04:43:13;;;;;;;8.30;5.15;;;;;;;;;;5033632;28;20195;-42
2021/09/29 04:45:39;;;;;;;9.05;5.68;;;;;;;;;;5025041;28;20184;-41
2021/09/29 04:48:05;;;;;;;7.28;5.10;;;;;;;;;;5014702;28;20185;-41
2021/09/29 04:50:31;;;;;;;8.45;5.28;;;;;;;;;;5014679;28;20536;-42
2021/09/29 04:52:57;;;;;;;7.20;5.22;;;;;;;;;;5026593;28;20230;-41
2021/09/29 04:55:24;;;;;;;8.20;5.32;;;;;;;;;;5018052;28;20215;-41
2021/09/29 04:57:50;;;;;;;12.88;5.35;;;;;;;;;;5017978;28;20213;-41
2021/09/29 05:00:17;;;;;;;9.23;5.35;;;;;;;;;;5019249;28;20185;-41
2021/09/29 05:02:44;;;;;;;6.50;5.40;;;;;;;;;;5019690;28;20250;-42
2021/09/29 05:05:11;;;;;;;6.95;5.22;;;;;;;;;;5034793;28;20184;-42
2021/09/29 05:07:39;;;;;;;7.40;5.30;;;;;;;;;;5017820;28;20574;-41
2021/09/29 05:10:06;;;;;;;9.30;5.22;;;;;;;;;;5022821;28;20181;-42
2021/09/29 05:12:32;;;;;;;9.02;5.05;;;;;;;;;;5037280;28;20203;-41
2021/09/29 05:14:59;;;;;;;6.28;5.03;;;;;;;;;;5035392;28;20183;-41
2021/09/29 05:17:25;;;;;;;9.15;5.22;;;;;;;;;;5034161;28;20191;-41
2021/09/29 05:19:52;;;;;;;7.82;4.97;;;;;;;;;;5029981;28;20188;-41
2021/09/29 05:22:18;;;;;;;6.40;5.07;;;;;;;;;;5036569;28;20575;-41
2021/09/29 05:24:44;;;;;;;7.82;4.75;;;;;;;;;;5033663;28;20183;-41
2021/09/29 05:27:10;;;;;;;6.57;4.57;;;;;;;;;;5017865;28;20180;-42
2021/09/29 05:29:40;;;;;;;7.43;5.00;;;;;;;;;;5017655;28;20181;-42
2021/09/29 05:32:07;;;;;;;6.93;5.05;;;;;;;;;;5017508;28;20248;-42
2021/09/29 05:34:33;;;;;;;5.70;4.57;;;;;;;;;;5016319;28;20183;-41
2021/09/29 05:36:59;;;;;;;6.55;4.90;;;;;;;;;;5035608;28;20176;-41
2021/09/29 05:39:25;;;;;;;7.25;5.63;;;;;;;;;;5037006;28;20424;-41
2021/09/29 05:41:51;;;;;;;10.63;5.50;;;;;;;;;;5030376;28;20231;-42
2021/09/29 05:44:17;;;;;;;6.40;5.32;;;;;;;;;;5017014;28;20598;-41
2021/09/29 05:46:43;;;;;;;6.65;4.97;;;;;;;;;;5017695;28;20186;-41
2021/09/29 05:49:09;;;;;;;5.88;4.72;;;;;;;;;;5031323;28;20505;-42
2021/09/29 05:51:35;;;;;;;6.22;4.90;;;;;;;;;;5036855;28;20188;-41
2021/09/29 05:54:01;;;;;;;6.72;5.20;;;;;;;;;;5036334;28;20282;-41
2021/09/29 05:56:27;;;;;;;8.88;5.28;;;;;;;;;;5022429;28;20199;-41
2021/09/29 05:58:53;;;;;;;5.88;5.20;;;;;;;;;;5012505;28;20188;-41
2021/09/29 06:01:19;;;;;;;6.53;5.07;;;;;;;;;;5025284;28;20508;-41
2021/09/29 06:03:45;;;;;;;6.20;4.95;;;;;;;;;;5028930;28;20198;-41
2021/09/29 06:06:11;;;;;;;6.30;5.28;;;;;;;;;;5034994;28;20191;-41
2021/09/29 06:08:37;;;;;;;6.63;5.28;;;;;;;;;;5036483;28;20172;-41
2021/09/29 06:11:03;;;;;;;6.22;4.97;;;;;;;;;;5036142;28;20195;-41
2021/09/29 06:13:29;;;;;;;4.80;4.30;;;;;;;;;;5036333;28;20201;-42
2021/09/29 06:15:55;;;;;;;6.55;4.72;;;;;;;;;;5034711;28;20207;-42
2021/09/29 06:18:21;;;;;;;7.03;4.90;;;;;;;;;;5025377;28;20180;-41
2021/09/29 06:20:48;;;;;;;5.78;4.88;;;;;;;;;;5016634;28;20613;-41
2021/09/29 06:23:15;;;;;;;6.70;4.65;;;;;;;;;;5016085;28;20204;-41
2021/09/29 06:25:41;;;;;;;5.32;4.75;;;;;;;;;;5016750;28;20173;-41
2021/09/29 06:28:07;;;;;;;5.18;4.60;;;;;;;;;;5016761;28;20175;-42
2021/09/29 06:30:34;;;;;;;7.75;4.47;;;;;;;;;;5016833;28;20256;-41
2021/09/29 06:33:00;;;;;;;6.97;4.97;;;;;;;;;;5016342;28;20177;-41
2021/09/29 06:35:29;;;;;;;5.50;4.50;;;;;;;;;;5036081;28;20176;-41
2021/09/29 06:37:55;;;;;;;7.13;4.85;;;;;;;;;;5035242;28;20176;-41
2021/09/29 06:40:21;;;;;;;6.90;4.60;;;;;;;;;;5036152;28;20172;-41
2021/09/29 06:42:47;;;;;;;4.80;4.18;;;;;;;;;;5036049;28;20291;-41
2021/09/29 06:45:14;;;;;;;6.10;4.50;;;;;;;;;;5035077;28;20227;-41
2021/09/29 06:47:40;;;;;;;5.78;5.03;;;;;;;;;;5032816;28;20841;-41
2021/09/29 06:50:11;;;;;;;6.68;4.55;;;;;;;;;;5035143;28;20171;-41
2021/09/29 06:52:37;;;;;;;6.85;4.15;;;;;;;;;;5035929;28;20416;-41
2021/09/29 06:55:04;;;;;;;6.40;4.40;;;;;;;;;;5032829;28;20184;-41
2021/09/29 06:57:30;;;;;;;5.35;4.53;;;;;;;;;;5034998;28;20174;-41
2021/09/29 06:59:56;;;;;;;5.22;4.43;;;;;;;;;;5035445;28;20184;-42
2021/09/29 07:02:22;;;;;;;5.07;4.43;;;;;;;;;;5035588;28;20586;-42
2021/09/29 07:04:48;;;;;;;5.75;4.60;;;;;;;;;;5034002;28;20284;-41
2021/09/29 07:07:14;;;;;;;5.70;4.63;;;;;;;;;;5017223;28;20926;-41
2021/09/29 07:09:40;;;;;;;7.28;4.40;;;;;;;;;;5016109;28;20172;-41
2021/09/29 07:12:07;;;;;;;6.20;4.30;;;;;;;;;;5035246;28;20202;-41
2021/09/29 07:14:33;;;;;;;5.47;4.38;;;;;;;;;;5034426;28;20181;-41
2021/09/29 07:17:00;;;;;;;4.68;4.22;;;;;;;;;;5035360;28;20215;-41
2021/09/29 07:19:26;;;;;;;7.35;5.53;;;;;;;;;;5017121;28;20177;-41
2021/09/29 07:21:52;;;;;;;5.97;5.38;;;;;;;;;;5015781;28;20224;-41
2021/09/29 07:24:19;;;;;;;6.68;5.60;;;;;;;;;;5014546;28;20169;-41
2021/09/29 07:26:45;;;;;;;6.07;5.30;;;;;;;;;;5034599;28;20233;-41
2021/09/29 07:29:11;;;;;;;7.63;4.75;;;;;;;;;;5019768;28;20177;-41
2021/09/29 07:31:40;;;;;;;6.53;5.07;;;;;;;;;;5023474;28;20211;-41
2021/09/29 07:34:07;;;;;;;6.13;5.53;;;;;;;;;;5034553;28;20172;-41
2021/09/29 07:36:33;;;;;;;5.85;5.28;;;;;;;;;;5035306;28;20482;-41
2021/09/29 07:38:59;;;;;;;7.93;5.38;;;;;;;;;;5035443;28;20196;-42
2021/09/29 07:41:25;;;;;;;4.45;4.00;;;;;;;;;;5035236;28;20179;-41
2021/09/29 07:43:51;;;;;;;6.55;5.38;;;;;;;;;;5034746;28;20577;-42
2021/09/29 07:46:18;;;;;;;6.90;5.07;;;;;;;;;;5035265;28;20172;-42
2021/09/29 07:48:44;;;;;;;8.25;6.05;;;;;;;;;;5026337;28;20173;-41
2021/09/29 07:51:13;;;;;;;6.97;5.20;;;;;;;;;;5015231;28;20176;-41
2021/09/29 07:53:39;;;;;;;8.65;6.82;;;;;;;;;;5015798;28;20207;-41
2021/09/29 07:56:05;;;;;;;8.73;6.85;;;;;;;;;;5034903;28;20214;-41
2021/09/29 07:58:31;;;;;;;8.13;6.72;;;;;;;;;;5034936;28;20180;-42
2021/09/29 08:00:57;;;;;;;7.18;5.93;;;;;;;;;;5033687;28;20563;-41
2021/09/29 08:03:23;;;;;;;8.52;6.75;;;;;;;;;;5033581;28;20262;-41
2021/09/29 08:05:52;;;;;;;8.13;6.80;;;;;;;;;;5034495;28;20337;-41
2021/09/29 08:08:18;;;;;;;9.68;7.45;;;;;;;;;;5034701;28;20552;-42
2021/09/29 08:10:44;;;;;;;7.15;6.45;;;;;;;;;;5034586;28;20188;-41
2021/09/29 08:13:10;;;;;;;7.65;6.80;;;;;;;;;;5034349;28;20176;-41
2021/09/29 08:15:36;;;;;;;9.48;7.85;;;;;;;;;;5033715;28;20307;-41
2021/09/29 08:18:02;;;;;;;8.18;7.10;;;;;;;;;;5034754;28;20175;-41
2021/09/29 08:20:33;;;;;;;10.55;6.97;;;;;;;;;;5034725;28;20175;-41
2021/09/29 08:23:10;;;;;;;8.77;6.97;;;;;;;;;;5034245;28;20203;-42
2021/09/29 08:25:57;;;;;;;8.48;6.70;;;;;;;;;;5034577;28;20156;-41
2021/09/29 08:31:01;;;;;;;8.43;6.90;;;;;;;;;;5036167;28;20175;-41
2021/09/29 08:38:35;;;;;;;7.35;6.53;;;;;;;;;;5037923;28;20167;-42
2021/09/29 08:43:53;;;;;;;8.70;7.05;;;;;;;;;;5018292;28;20217;-41
2021/09/29 08:46:44;;;;;;;8.10;6.68;;;;;;;;;;5018832;28;20182;-42
2021/09/29 08:49:22;;;;;;;9.57;7.13;;;;;;;;;;5032499;28;20174;-42
2021/09/29 08:52:11;;;;;;;8.00;5.88;;;;;;;;;;5038370;28;20486;-41
2021/09/29 08:54:55;;;;;;;7.28;5.60;;;;;;;;;;5028743;28;20184;-41
2021/09/29 09:16:58;;;;;;;5.00;4.50;;;;;;;;;;5030853;28;20237;-41
2021/09/29 09:19:29;;;;;;;5.30;4.68;;;;;;;;;;5033959;28;20458;-41
2021/09/29 09:21:58;;;;;;;5.10;4.60;;;;;;;;;;5041257;28;20237;-42
2021/09/29 09:24:27;;;;;;;6.05;5.03;;;;;;;;;;5028884;28;20175;-42
2021/09/29 09:27:15;;;;;;;5.60;4.78;;;;;;;;;;5036514;28;20250;-42
2021/09/29 09:29:51;;;;;;;5.88;5.28;;;;;;;;;;5036777;28;20172;-42
2021/09/29 09:32:18;;;;;;;6.53;5.55;;;;;;;;;;5018345;28;20196;-42
2021/09/29 09:34:44;;;;;;;6.55;4.70;;;;;;;;;;5024848;28;20551;-42
2021/09/29 09:37:12;;;;;;;5.45;4.80;;;;;;;;;;5029591;28;20309;-42
2021/09/29 09:39:38;;;;;;;6.57;4.50;;;;;;;;;;5036081;28;20226;-41
2021/09/29 09:42:06;;;;;;;5.18;4.63;;;;;;;;;;5030925;28;20237;-41
2021/09/29 09:44:35;;;;;;;5.28;4.75;;;;;;;;;;5034098;28;20188;-42
2021/09/29 09:47:10;;;;;;;7.15;4.55;;;;;;;;;;5029981;28;20180;-42
2021/09/29 09:49:46;;;;;;;7.57;4.65;;;;;;;;;;5036389;28;20195;-42
2021/09/29 09:52:12;;;;;;;5.25;4.75;;;;;;;;;;5017181;28;20548;-42
2021/09/29 09:54:39;;;;;;;7.72;4.85;;;;;;;;;;5018001;28;20183;-42
2021/09/29 09:57:21;;;;;;;4.93;4.43;;;;;;;;;;5017652;28;20555;-42
2021/09/29 09:59:51;;;;;;;6.10;4.30;;;;;;;;;;5022389;28;20188;-42
2021/09/29 10:02:17;;;;;;;5.47;3.92;;;;;;;;;;5023606;28;20207;-42
2021/09/29 10:04:44;;;;;;;4.57;3.80;;;;;;;;;;5033960;28;20172;-42
2021/09/29 10:07:10;;;;;;;5.85;4.03;;;;;;;;;;5034969;28;20528;-42
2021/09/29 10:14:41;;;;;;;5.05;3.70;;;;;;;;;;5017784;28;21427;-42
2021/09/29 10:28:13;;;;;;;5.30;3.53;;;;;;;;;;5029590;28;20234;-42
2021/09/29 10:30:49;;;;;;;3.92;3.28;;;;;;;;;;5036613;28;20527;-42
2021/09/29 10:33:22;;;;;;;4.18;2.97;;;;;;;;;;5035820;28;20171;-42
2021/09/29 10:36:05;;;;;;;3.00;2.80;;;;;;;;;;5036235;28;20620;-42
2021/09/29 10:41:07;;;;;;;3.13;2.88;;;;;;;;;;5036165;28;20179;-42
2021/09/29 10:46:37;;;;;;;5.15;2.90;;;;;;;;;;5036199;28;20266;-42
2021/09/29 11:06:05;;;;;;;2.55;2.35;;;;;;;;;;5035517;28;20543;-43
2021/09/29 11:30:41;;;;;;;2.15;1.95;;;;;;;;;;5015367;28;20323;-43
2021/09/29 11:33:21;;;;;;;2.70;1.80;;;;;;;;;;5015094;28;20227;-43
2021/09/29 12:11:47;;;;;;;1.95;1.63;;;;;;;;;;5016100;28;20184;-43
2021/09/29 12:14:17;;;;;;;4.05;1.27;;;;;;;;;;5016054;28;20175;-43
2021/09/29 12:16:44;;;;;;;2.85;1.55;;;;;;;;;;5034008;28;20176;-43
2021/09/29 12:19:14;;;;;;;2.40;1.40;;;;;;;;;;5031433;28;20172;-43
2021/09/29 12:21:57;;;;;;;2.88;1.70;;;;;;;;;;5028429;28;20453;-43
2021/09/29 12:24:28;;;;;;;3.28;1.60;;;;;;;;;;5028714;28;20186;-43
2021/09/29 12:26:56;;;;;;;2.40;1.60;;;;;;;;;;5032150;28;20199;-43
2021/09/29 12:29:30;;;;;;;1.88;1.30;;;;;;;;;;5016007;28;20240;-43
2021/09/29 12:32:09;;;;;;;2.33;1.60;;;;;;;;;;5027224;28;20175;-43
2021/09/29 12:35:03;;;;;;;1.73;1.38;;;;;;;;;;5015680;28;20544;-42
2021/09/29 12:37:29;;;;;;;3.15;1.55;;;;;;;;;;5022346;28;20180;-43
2021/09/29 12:39:56;;;;;;;2.42;1.30;;;;;;;;;;5014738;28;20624;-43
2021/09/29 12:42:31;;;;;;;2.13;1.30;;;;;;;;;;5018071;28;20210;-43
2021/09/29 12:44:57;;;;;;;2.05;1.38;;;;;;;;;;5014285;28;20204;-43
2021/09/29 12:47:35;;;;;;;1.25;1.10;;;;;;;;;;5028929;28;20176;-43
2021/09/29 12:50:11;;;;;;;2.63;1.10;;;;;;;;;;5028768;28;20172;-43
2021/09/29 12:52:45;;;;;;;3.70;1.65;;;;;;;;;;5027857;28;20571;-43
2021/09/29 12:55:18;;;;;;;2.33;1.40;;;;;;;;;;5026932;28;20176;-43
2021/09/29 12:57:44;;;;;;;1.45;1.20;;;;;;;;;;5014876;28;20188;-43
2021/09/29 13:00:12;;;;;;;2.38;1.38;;;;;;;;;;5032569;28;20437;-43
2021/09/29 13:02:38;;;;;;;1.90;1.25;;;;;;;;;;5021870;28;20204;-43
2021/09/29 13:05:04;;;;;;;4.18;1.30;;;;;;;;;;5021371;28;20239;-43
2021/09/29 13:07:30;;;;;;;1.58;1.20;;;;;;;;;;5029420;28;20579;-43
2021/09/29 13:09:56;;;;;;;4.30;1.55;;;;;;;;;;5027781;28;20169;-43
2021/09/29 13:12:22;;;;;;;4.43;1.33;;;;;;;;;;5019968;28;20208;-43
2021/09/29 13:14:48;;;;;;;3.58;1.42;;;;;;;;;;5013972;28;20211;-43
2021/09/29 13:17:14;;;;;;;2.03;1.35;;;;;;;;;;5042455;28;20180;-43
2021/09/29 13:19:44;;;;;;;6.82;1.33;;;;;;;;;;5023016;28;20188;-43
2021/09/29 13:22:17;;;;;;;1.50;1.40;;;;;;;;;;5028736;28;20211;-43
2021/09/29 13:37:34;;;;;;;3.15;2.40;;;;;;;;;;5026183;28;20279;-43
2021/09/29 13:40:01;;;;;;;4.43;2.30;;;;;;;;;;5037032;28;20306;-43
2021/09/29 13:42:27;;;;;;;5.20;2.58;;;;;;;;;;5030546;28;20195;-43
2021/09/29 13:44:54;;;;;;;6.53;1.88;;;;;;;;;;5036243;28;20275;-43
2021/09/29 13:47:20;;;;;;;4.93;2.00;;;;;;;;;;5024779;28;20452;-43
2021/09/29 13:49:46;;;;;;;4.88;1.90;;;;;;;;;;5033856;28;20168;-43
2021/09/29 13:52:16;;;;;;;4.68;1.67;;;;;;;;;;5028997;28;20200;-43
2021/09/29 13:54:42;;;;;;;4.35;1.67;;;;;;;;;;5026455;28;20558;-43
2021/09/29 13:59:46;;;;;;;4.70;1.50;;;;;;;;;;5036806;28;20530;-43
2021/09/29 14:30:03;;;;;;;1.63;1.05;;;;;;;;;;5016763;28;20216;-42
2021/09/29 14:32:31;;;;;;;2.58;1.30;;;;;;;;;;5020508;28;20472;-42
2021/09/29 14:34:57;;;;;;;1.75;1.20;;;;;;;;;;5034464;28;20254;-42
2021/09/29 14:37:23;;;;;;;3.85;1.45;;;;;;;;;;5016759;28;20195;-42
2021/09/29 14:39:49;;;;;;;2.03;1.20;;;;;;;;;;5032374;28;20452;-42
2021/09/29 14:42:15;;;;;;;2.17;1.02;;;;;;;;;;5026165;28;20211;-42
2021/09/29 14:44:43;;;;;;;5.50;1.58;;;;;;;;;;5031560;28;20207;-43
2021/09/29 14:47:12;;;;;;;4.38;1.40;;;;;;;;;;5036296;28;20191;-42
2021/09/29 14:49:42;;;;;;;6.07;1.30;;;;;;;;;;5024028;28;20184;-42
2021/09/29 14:52:08;;;;;;;4.38;1.27;;;;;;;;;;5021215;28;20203;-43
2021/09/29 14:54:34;;;;;;;4.80;1.35;;;;;;;;;;5025182;28;20220;-42
2021/09/29 14:57:00;;;;;;;4.05;1.40;;;;;;;;;;5017643;28;20449;-42
2021/09/29 14:59:26;;;;;;;2.00;1.10;;;;;;;;;;5029889;28;20544;-42
2021/09/29 15:01:53;;;;;;;5.47;1.48;;;;;;;;;;5035037;28;20238;-42
2021/09/29 15:04:18;;;;;;;5.88;1.52;;;;;;;;;;5035245;28;20445;-43
2021/09/29 15:06:44;;;;;;;5.30;1.30;;;;;;;;;;5026518;28;20214;-43
2021/09/29 15:09:10;;;;;;;4.85;1.30;;;;;;;;;;5035654;28;20433;-43
2021/09/29 15:11:36;;;;;;;4.68;1.40;;;;;;;;;;5035497;28;20203;-43
2021/09/29 15:14:15;;;;;;;4.45;1.23;;;;;;;;;;5034524;28;20211;-43
2021/09/29 15:16:57;;;;;;;6.88;1.75;;;;;;;;;;5028323;28;20173;-43
2021/09/29 15:19:34;;;;;;;2.28;1.20;;;;;;;;;;5035123;28;20222;-42
2021/09/29 15:24:55;;;;;;;3.70;1.20;;;;;;;;;;5015085;28;20456;-42
2021/09/29 15:30:22;;;;;;;2.33;1.35;;;;;;;;;;5015933;28;20260;-42
2021/09/29 15:47:06;;;;;;;3.13;1.38;;;;;;;;;;5027216;28;20585;-40
2021/09/29 15:49:23;;;;;;;1.30;1.00;;;;;;;;;;5015179;28;20258;-40
2021/09/29 15:52:07;;;;;;;2.00;1.20;;;;;;;;;;5029411;28;20477;-40
2021/09/29 16:02:25;;;;;;;2.03;1.10;;;;;;;;;;5030136;28;20200;-41
2021/09/29 16:07:46;;;;;;;2.95;1.08;;;;;;;;;;5029523;28;20262;-41
2021/09/29 16:31:58;;;;;;;2.55;0.80;;;;;;;;;;5021154;28;20247;-41
2021/09/29 16:34:31;;;;;;;1.70;0.77;;;;;;;;;;5027474;28;20456;-41
2021/09/29 16:36:57;;;;;;;1.83;0.93;;;;;;;;;;5021798;28;20179;-41
2021/09/29 16:39:23;;;;;;;1.42;1.00;;;;;;;;;;5020726;28;20226;-41
2021/09/29 16:41:49;;;;;;;2.65;1.20;;;;;;;;;;5029397;28;20464;-41
2021/09/29 16:44:16;;;;;;;2.53;1.63;;;;;;;;;;5023420;28;20200;-41
2021/09/29 16:46:42;;;;;;;1.60;1.23;;;;;;;;;;5016126;28;20192;-40
2021/09/29 16:49:11;;;;;;;1.85;1.27;;;;;;;;;;5014474;28;20601;-41
2021/09/29 16:51:45;;;;;;;1.95;1.10;;;;;;;;;;5027645;28;20180;-41
2021/09/29 16:54:15;;;;;;;2.92;1.25;;;;;;;;;;5031602;28;20538;-41
2021/09/29 16:56:42;;;;;;;1.23;1.05;;;;;;;;;;5026373;28;20247;-41
2021/09/29 17:01:37;;;;;;;0.70;0.70;;;;;;;;;;5023028;28;20464;-41
2021/09/29 17:04:04;;;;;;;1.17;0.98;;;;;;;;;;5022023;28;20594;-41
2021/09/29 17:06:33;;;;;;;3.05;1.10;;;;;;;;;;5019334;28;20179;-41
2021/09/29 17:09:00;;;;;;;1.42;0.90;;;;;;;;;;5022822;28;20174;-41
2021/09/29 17:11:26;;;;;;;2.05;1.08;;;;;;;;;;5021024;28;20187;-41
2021/09/29 17:13:52;;;;;;;1.80;1.05;;;;;;;;;;5028727;28;20218;-43
2021/09/29 17:16:24;;;;;;;1.27;0.88;;;;;;;;;;5028300;28;20180;-41
2021/09/29 17:18:51;;;;;;;1.88;0.90;;;;;;;;;;5031241;28;20665;-41
2021/09/29 17:21:18;;;;;;;1.83;0.77;;;;;;;;;;5028301;28;20226;-41
2021/09/29 17:23:44;;;;;;;1.35;0.82;;;;;;;;;;5034672;28;20204;-41
2021/09/29 17:26:11;;;;;;;1.17;0.95;;;;;;;;;;5018700;28;20548;-43
2021/09/29 17:28:37;;;;;;;1.00;0.60;;;;;;;;;;5017441;28;20231;-41
2021/09/29 17:31:06;;;;;;;1.33;0.90;;;;;;;;;;5027842;28;20171;-43
2021/09/29 17:33:52;;;;;;;1.48;1.10;;;;;;;;;;5036768;28;20274;-41
2021/09/29 17:39:22;;;;;;;1.25;0.73;;;;;;;;;;5021938;28;20455;-41
2021/09/29 17:53:07;;;;;;;1.20;0.77;;;;;;;;;;5035684;28;20281;-41
2021/09/29 17:55:33;;;;;;;1.00;0.60;;;;;;;;;;5026378;28;20450;-41
2021/09/29 17:57:59;;;;;;;0.82;0.70;;;;;;;;;;5032791;28;20262;-41
2021/09/29 18:00:27;;;;;;;1.70;0.68;;;;;;;;;;5019373;28;20219;-41
2021/09/29 18:03:00;;;;;;;0.50;0.50;;;;;;;;;;5032021;28;20215;-41
2021/09/29 18:05:35;;;;;;;0.65;0.65;;;;;;;;;;5032909;28;20203;-41
2021/09/29 18:08:03;;;;;;;0.70;0.70;;;;;;;;;;5025337;28;20444;-41
2021/09/29 18:10:29;;;;;;;0.90;0.63;;;;;;;;;;5021321;28;20191;-41
2021/09/29 18:12:56;;;;;;;0.68;0.60;;;;;;;;;;5018178;28;20239;-41
2021/09/29 18:15:22;;;;;;;1.17;0.60;;;;;;;;;;5018213;28;20181;-41
2021/09/29 18:17:48;;;;;;;0.77;0.70;;;;;;;;;;5019030;28;20191;-41
2021/09/29 18:20:14;;;;;;;0.70;0.70;;;;;;;;;;5034724;28;20186;-41
2021/09/29 18:22:41;;;;;;;0.60;0.60;;;;;;;;;;5027997;28;20480;-41
2021/09/29 18:25:08;;;;;;;1.48;0.90;;;;;;;;;;5024166;28;20215;-41
2021/09/29 18:27:34;;;;;;;3.13;0.80;;;;;;;;;;5016767;28;20164;-41
2021/09/29 18:30:01;;;;;;;0.73;0.70;;;;;;;;;;5030501;28;20208;-41
2021/09/29 18:32:27;;;;;;;0.80;0.70;;;;;;;;;;5020512;28;20180;-41
2021/09/29 18:34:54;;;;;;;0.60;0.60;;;;;;;;;;5024994;28;20199;-41
2021/09/29 18:37:25;;;;;;;1.10;0.77;;;;;;;;;;5032012;28;20486;-41
2021/09/29 18:39:52;;;;;;;0.93;0.70;;;;;;;;;;5021102;28;20180;-41
2021/09/29 18:42:20;;;;;;;1.05;0.60;;;;;;;;;;5031127;28;20478;-41
2021/09/29 18:44:46;;;;;;;1.02;0.70;;;;;;;;;;5022107;28;20583;-41
2021/09/29 18:47:13;;;;;;;0.77;0.57;;;;;;;;;;5018170;28;20519;-41